Time;durP1;ratioP1;P1;durP2;ratioP2;P2;SDS_P1;SDS_P2;PMS_P1;PMS_P2;Temp;Humidity;BMP_temperature;BMP_pressure;BME280_temperature;BME280_humidity;BME280_pressure;Samples;Min_cycle;Max_cycle;Signal;HPM_P1;HPM_P2
2021/09/13 00:01:48;;;;;;;9.85;7.07;;;;;;;18.29;64.64;98502.88;5087368;28;20087;-71
2021/09/13 00:04:13;;;;;;;7.75;5.93;;;;;;;18.23;64.79;98507.84;5070973;28;20059;-71
2021/09/13 00:06:39;;;;;;;7.80;5.97;;;;;;;18.20;64.81;98513.28;5084753;28;20025;-71
2021/09/13 00:09:05;;;;;;;8.43;5.70;;;;;;;18.21;65.27;98509.34;5070102;28;20035;-71
2021/09/13 00:11:31;;;;;;;6.93;5.40;;;;;;;18.24;64.93;98514.19;5085176;28;20582;-71
2021/09/13 00:13:56;;;;;;;8.30;5.80;;;;;;;18.28;65.34;98515.13;5089487;28;20028;-71
2021/09/13 00:16:21;;;;;;;7.18;5.47;;;;;;;18.29;65.29;98519.53;5085995;28;20105;-71
2021/09/13 00:18:47;;;;;;;10.95;6.03;;;;;;;18.22;65.02;98510.97;5086263;28;20035;-71
2021/09/13 00:21:13;;;;;;;10.00;6.32;;;;;;;18.18;65.21;98510.84;5079036;28;20060;-71
2021/09/13 00:23:38;;;;;;;10.82;7.05;;;;;;;18.15;65.00;98512.34;5087128;28;20085;-71
2021/09/13 00:26:04;;;;;;;10.20;6.00;;;;;;;18.19;65.34;98515.25;5087065;28;20477;-71
2021/09/13 00:28:29;;;;;;;10.27;6.45;;;;;;;18.19;65.29;98512.47;5080041;28;20027;-71
2021/09/13 00:30:54;;;;;;;9.18;6.70;;;;;;;18.20;65.29;98513.28;5086917;28;20020;-71
2021/09/13 00:33:20;;;;;;;12.38;6.80;;;;;;;18.11;65.04;98510.63;5085248;28;20495;-71
2021/09/13 00:35:45;;;;;;;9.05;6.13;;;;;;;18.06;65.14;98508.06;5079918;28;20103;-71
2021/09/13 00:38:11;;;;;;;8.77;6.68;;;;;;;18.03;65.06;98505.97;5086071;28;20027;-70
2021/09/13 00:40:36;;;;;;;9.00;6.03;;;;;;;17.94;65.16;98504.06;5087257;28;20035;-71
2021/09/13 00:43:03;;;;;;;10.35;6.78;;;;;;;17.92;65.54;98509.19;5083607;28;20069;-71
2021/09/13 00:45:28;;;;;;;10.68;6.60;;;;;;;17.89;65.24;98512.66;5087856;28;20020;-71
2021/09/13 00:47:54;;;;;;;9.80;6.57;;;;;;;17.84;65.23;98508.09;5092861;28;20532;-71
2021/09/13 00:50:19;;;;;;;9.88;6.80;;;;;;;17.83;65.53;98512.03;5084585;28;20023;-71
2021/09/13 00:52:52;;;;;;;10.35;6.00;;;;;;;17.84;65.34;98508.09;5087061;28;20099;-71
2021/09/13 00:55:18;;;;;;;10.18;6.60;;;;;;;17.82;65.65;98509.63;5090023;28;20027;-71
2021/09/13 00:57:45;;;;;;;7.32;5.78;;;;;;;17.83;65.48;98505.69;5089023;28;20019;-70
2021/09/13 01:00:11;;;;;;;8.43;5.97;;;;;;;17.81;65.73;98499.69;5087532;28;20116;-69
2021/09/13 01:02:36;;;;;;;9.25;6.72;;;;;;;17.76;65.64;98497.91;5091221;28;20081;-70
2021/09/13 01:05:02;;;;;;;9.88;6.57;;;;;;;17.73;65.95;98501.38;5094180;28;20028;-70
2021/09/13 01:07:30;;;;;;;9.88;6.88;;;;;;;17.70;65.68;98507.63;5092502;28;20051;-69
2021/09/13 01:09:55;;;;;;;10.30;6.32;;;;;;;17.65;65.63;98502.31;5099141;28;20061;-69
2021/09/13 01:12:21;;;;;;;9.93;6.10;;;;;;;17.60;66.02;98496.97;5089285;28;20028;-69
2021/09/13 01:14:46;;;;;;;10.15;5.80;;;;;;;17.59;66.37;98496.16;5096810;28;20107;-70
2021/09/13 01:17:11;;;;;;;11.88;6.47;;;;;;;17.64;66.47;98501.47;5075808;28;20024;-69
2021/09/13 01:19:37;;;;;;;9.52;6.18;;;;;;;17.69;66.31;98494.91;5094633;28;20047;-69
2021/09/13 01:22:04;;;;;;;9.85;6.40;;;;;;;17.75;66.65;98493.53;5074333;28;20066;-70
2021/09/13 01:24:30;;;;;;;8.27;6.15;;;;;;;17.86;66.46;98491.94;5092915;28;20031;-69
2021/09/13 01:27:05;;;;;;;10.60;6.60;;;;;;;17.82;66.37;98492.97;5089718;28;20026;-69
2021/09/13 01:29:30;;;;;;;8.88;6.35;;;;;;;17.86;66.63;98483.59;5088470;28;20055;-69
2021/09/13 01:31:57;;;;;;;10.13;6.38;;;;;;;17.96;66.59;98484.31;5096966;28;20023;-69
2021/09/13 01:34:23;;;;;;;10.55;6.25;;;;;;;17.98;66.48;98484.78;5070667;28;20028;-69
2021/09/13 01:36:49;;;;;;;8.20;5.78;;;;;;;17.99;66.13;98480.88;5086656;28;20570;-69
2021/09/13 01:39:14;;;;;;;9.52;6.70;;;;;;;17.99;66.24;98478.91;5070234;28;20022;-69
2021/09/13 01:41:40;;;;;;;10.18;7.13;;;;;;;17.98;66.39;98480.03;5088060;28;20036;-69
2021/09/13 01:44:05;;;;;;;10.13;6.95;;;;;;;17.99;66.48;98472.56;5088027;28;20035;-69
2021/09/13 01:46:31;;;;;;;11.27;7.25;;;;;;;17.99;66.32;98476.13;5084521;28;20028;-69
2021/09/13 01:48:56;;;;;;;9.13;6.47;;;;;;;17.99;66.39;98481.69;5096522;28;20480;-69
2021/09/13 01:51:22;;;;;;;11.20;6.90;;;;;;;17.93;66.32;98483.03;5093139;28;20086;-69
2021/09/13 01:53:47;;;;;;;9.57;6.82;;;;;;;17.86;66.18;98486.38;5085469;28;20115;-70
2021/09/13 01:56:14;;;;;;;8.65;6.40;;;;;;;17.81;66.13;98491.34;5089710;28;20038;-69
2021/09/13 01:58:39;;;;;;;9.32;6.78;;;;;;;17.79;66.30;98488.91;5090540;28;20541;-69
2021/09/13 02:01:05;;;;;;;7.97;6.05;;;;;;;17.80;66.44;98490.53;5068474;28;20036;-69
2021/09/13 02:03:30;;;;;;;11.07;7.00;;;;;;;17.78;66.52;98498.38;5092299;28;20027;-70
2021/09/13 02:05:56;;;;;;;9.95;6.97;;;;;;;17.85;66.55;98493.09;5089298;28;20019;-69
2021/09/13 02:08:21;;;;;;;12.23;7.07;;;;;;;17.95;66.81;98497.38;5095324;28;20081;-69
2021/09/13 02:10:47;;;;;;;11.52;7.70;;;;;;;18.03;66.87;98495.69;5092008;28;20123;-70
2021/09/13 02:13:12;;;;;;;12.75;7.53;;;;;;;18.08;66.73;98497.44;5090953;28;20080;-69
2021/09/13 02:15:38;;;;;;;9.25;6.78;;;;;;;18.14;66.73;98496.84;5095754;28;20043;-69
2021/09/13 02:18:03;;;;;;;9.90;6.63;;;;;;;18.18;66.60;98496.16;5070621;28;20108;-69
2021/09/13 02:20:29;;;;;;;8.52;6.30;;;;;;;18.15;66.43;98498.47;5089770;28;20048;-69
2021/09/13 02:22:54;;;;;;;10.63;6.95;;;;;;;18.10;66.43;98497.88;5086462;28;20070;-70
2021/09/13 02:25:19;;;;;;;10.07;6.68;;;;;;;18.05;66.33;98496.16;5076908;28;20095;-70
2021/09/13 02:27:45;;;;;;;9.77;6.30;;;;;;;18.00;66.21;98499.16;5093952;28;20060;-70
2021/09/13 02:30:11;;;;;;;11.55;7.18;;;;;;;17.90;66.35;98502.34;5087633;28;20031;-70
2021/09/13 02:32:36;;;;;;;10.00;7.07;;;;;;;17.82;66.31;98504.06;5070831;28;20027;-69
2021/09/13 02:35:05;;;;;;;10.35;7.43;;;;;;;17.68;66.67;98494.09;5095666;28;20608;-69
2021/09/13 02:37:34;;;;;;;12.32;7.80;;;;;;;17.63;66.75;98504.59;5092894;28;20028;-70
2021/09/13 02:40:01;;;;;;;11.00;8.13;;;;;;;17.61;67.04;98493.03;5094562;28;20507;-69
2021/09/13 02:42:27;;;;;;;14.32;8.75;;;;;;;17.65;67.09;98507.84;5085964;28;20070;-69
2021/09/13 02:44:52;;;;;;;12.85;8.77;;;;;;;17.68;67.38;98504.41;5092958;28;20028;-69
2021/09/13 02:47:17;;;;;;;12.88;8.65;;;;;;;17.70;67.34;98505.66;5084959;28;20028;-69
2021/09/13 02:49:43;;;;;;;15.90;9.80;;;;;;;17.71;67.77;98500.94;5089740;28;20039;-69
2021/09/13 02:52:08;;;;;;;15.30;9.07;;;;;;;17.78;67.54;98509.47;5090273;28;20047;-68
2021/09/13 02:54:33;;;;;;;15.38;10.43;;;;;;;17.81;67.50;98508.00;5088417;28;20036;-69
2021/09/13 02:56:59;;;;;;;14.30;9.15;;;;;;;17.85;67.52;98501.41;5080226;28;20035;-69
2021/09/13 02:59:26;;;;;;;17.25;9.77;;;;;;;17.84;67.74;98504.53;5085695;28;20028;-69
2021/09/13 03:01:51;;;;;;;14.25;9.63;;;;;;;17.86;67.60;98503.03;5086518;28;20495;-69
2021/09/13 03:04:16;;;;;;;13.48;9.00;;;;;;;17.82;67.35;98499.31;5087706;28;20028;-69
2021/09/13 03:06:42;;;;;;;11.35;8.45;;;;;;;17.76;67.54;98499.91;5090230;28;20051;-69
2021/09/13 03:09:07;;;;;;;13.85;9.02;;;;;;;17.77;67.84;98495.97;5086227;28;20024;-69
2021/09/13 03:11:33;;;;;;;11.90;8.13;;;;;;;17.77;67.85;98494.00;5085376;28;20036;-68
2021/09/13 03:13:58;;;;;;;13.77;7.43;;;;;;;17.82;67.81;98496.53;5082217;28;20032;-69
2021/09/13 03:16:24;;;;;;;12.30;7.72;;;;;;;17.89;68.17;98497.94;5079028;28;20031;-69
2021/09/13 03:18:49;;;;;;;12.13;8.25;;;;;;;17.95;68.09;98507.69;5086460;28;20153;-70
2021/09/13 03:21:15;;;;;;;10.82;7.07;;;;;;;17.99;68.03;98503.88;5087868;28;20668;-68
2021/09/13 03:23:41;;;;;;;9.65;6.93;;;;;;;18.00;68.13;98508.28;5079944;28;20039;-69
2021/09/13 03:26:07;;;;;;;10.02;6.95;;;;;;;17.95;67.72;98502.13;5086674;28;20454;-68
2021/09/13 03:28:34;;;;;;;10.93;7.22;;;;;;;17.85;68.08;98508.94;5078534;28;20044;-69
2021/09/13 03:31:02;;;;;;;10.00;7.03;;;;;;;17.83;68.12;98506.50;5083770;28;20168;-69
2021/09/13 03:33:28;;;;;;;9.43;7.10;;;;;;;17.83;68.00;98511.25;5086236;28;20365;-69
2021/09/13 03:35:54;;;;;;;9.25;6.82;;;;;;;17.81;67.98;98508.78;5083224;28;20024;-69
2021/09/13 03:38:19;;;;;;;10.85;7.03;;;;;;;17.82;67.93;98513.19;5087539;28;20034;-69
2021/09/13 03:40:45;;;;;;;11.07;7.05;;;;;;;17.80;68.12;98511.94;5087594;28;20542;-70
2021/09/13 03:43:11;;;;;;;9.15;6.43;;;;;;;17.75;68.27;98517.69;5086470;28;20492;-70
2021/09/13 03:45:37;;;;;;;10.18;6.93;;;;;;;17.64;67.94;98514.53;5075710;28;20032;-70
2021/09/13 03:48:02;;;;;;;10.60;6.63;;;;;;;17.56;68.13;98514.28;5082319;28;20025;-70
2021/09/13 03:50:28;;;;;;;12.77;7.72;;;;;;;17.51;68.27;98522.81;5079896;28;20032;-69
2021/09/13 03:52:53;;;;;;;12.60;8.52;;;;;;;17.42;68.64;98516.53;5088292;28;20581;-70
2021/09/13 03:55:19;;;;;;;11.38;7.82;;;;;;;17.31;68.85;98524.47;5095439;28;20035;-69
2021/09/13 03:57:44;;;;;;;12.18;7.78;;;;;;;17.22;69.71;98523.72;5091414;28;20031;-69
2021/09/13 04:00:10;;;;;;;16.42;8.52;;;;;;;17.18;69.18;98518.06;5080754;28;20028;-68
2021/09/13 04:02:37;;;;;;;17.70;9.63;;;;;;;17.16;69.12;98523.13;5087454;28;20507;-69
2021/09/13 04:05:03;;;;;;;17.02;9.73;;;;;;;17.16;69.94;98519.53;5091919;28;20020;-69
2021/09/13 04:07:36;;;;;;;15.07;8.82;;;;;;;17.10;69.59;98524.47;5094360;28;20510;-68
2021/09/13 04:10:17;;;;;;;14.95;9.10;;;;;;;17.13;69.86;98525.75;5087102;28;20036;-69
2021/09/13 04:12:42;;;;;;;13.95;8.65;;;;;;;17.08;69.80;98527.59;5084006;28;20016;-69
2021/09/13 04:15:08;;;;;;;15.18;9.00;;;;;;;17.07;69.89;98531.53;5087515;28;20025;-69
2021/09/13 04:17:34;;;;;;;18.20;10.20;;;;;;;17.13;70.08;98529.34;5068498;28;20085;-69
2021/09/13 04:19:59;;;;;;;16.17;9.35;;;;;;;17.17;70.11;98526.69;5085232;28;20032;-69
2021/09/13 04:22:26;;;;;;;18.27;10.50;;;;;;;17.23;69.90;98533.66;5089815;28;20104;-69
2021/09/13 04:24:51;;;;;;;18.80;11.73;;;;;;;17.19;70.30;98522.47;5087865;28;20032;-69
2021/09/13 04:27:17;;;;;;;19.85;10.82;;;;;;;17.26;70.33;98533.00;5085072;28;20042;-69
2021/09/13 04:29:42;;;;;;;21.33;11.73;;;;;;;17.30;69.97;98525.63;5087066;28;20052;-69
2021/09/13 04:32:08;;;;;;;20.20;12.10;;;;;;;17.31;70.09;98529.22;5080974;28;20028;-69
2021/09/13 04:34:33;;;;;;;23.42;13.85;;;;;;;17.34;70.30;98531.28;5085125;28;20035;-69
2021/09/13 04:36:59;;;;;;;22.67;11.68;;;;;;;17.41;70.07;98526.00;5080373;28;20552;-68
2021/09/13 04:39:24;;;;;;;18.77;11.25;;;;;;;17.44;70.07;98533.66;5076074;28;20558;-68
2021/09/13 04:41:49;;;;;;;25.58;12.88;;;;;;;17.44;70.10;98530.06;5093911;28;20028;-69
2021/09/13 04:44:15;;;;;;;21.20;11.88;;;;;;;17.33;70.07;98529.66;5073044;28;20051;-68
2021/09/13 04:46:40;;;;;;;27.52;13.93;;;;;;;17.30;70.27;98535.91;5092840;28;20024;-68
2021/09/13 04:49:06;;;;;;;22.30;13.18;;;;;;;17.35;70.51;98527.34;5065714;28;20060;-68
2021/09/13 04:51:32;;;;;;;24.20;15.73;;;;;;;17.38;70.38;98527.50;5083365;28;20032;-68
2021/09/13 04:53:59;;;;;;;25.65;14.68;;;;;;;17.45;70.46;98540.81;5093834;28;20789;-68
2021/09/13 04:56:25;;;;;;;19.85;12.00;;;;;;;17.47;70.14;98535.75;5085489;28;20016;-68
2021/09/13 04:58:51;;;;;;;20.92;12.30;;;;;;;17.52;70.31;98532.75;5091648;28;20013;-70
2021/09/13 05:01:16;;;;;;;25.58;12.68;;;;;;;17.55;70.40;98532.06;5086639;28;20092;-70
2021/09/13 05:03:42;;;;;;;18.88;11.98;;;;;;;17.53;70.28;98534.38;5089288;28;20480;-70
2021/09/13 05:06:07;;;;;;;20.83;11.55;;;;;;;17.56;70.40;98538.41;5089454;28;20770;-71
2021/09/13 05:08:33;;;;;;;19.83;12.10;;;;;;;17.59;70.28;98534.16;5084077;28;20028;-70
2021/09/13 05:10:58;;;;;;;20.13;11.80;;;;;;;17.62;70.38;98539.03;5090853;28;20023;-71
2021/09/13 05:13:23;;;;;;;23.80;12.63;;;;;;;17.68;70.30;98544.00;5066730;28;20030;-71
2021/09/13 05:15:49;;;;;;;20.02;10.90;;;;;;;17.62;70.00;98537.06;5088814;28;20028;-69
2021/09/13 05:18:15;;;;;;;24.58;12.25;;;;;;;17.56;70.13;98538.41;5091574;28;20021;-68
2021/09/13 05:20:41;;;;;;;25.77;12.68;;;;;;;17.53;69.97;98547.41;5083807;28;20470;-69
2021/09/13 05:23:06;;;;;;;18.60;11.65;;;;;;;17.44;70.11;98535.63;5090735;28;20112;-73
2021/09/13 05:25:32;;;;;;;19.70;12.25;;;;;;;17.44;70.31;98547.50;5089630;28;20033;-72
2021/09/13 05:27:57;;;;;;;18.67;12.02;;;;;;;17.46;70.54;98544.41;5089899;28;20060;-72
2021/09/13 05:30:22;;;;;;;18.73;11.73;;;;;;;17.54;70.62;98552.63;5093783;28;20055;-72
2021/09/13 05:32:48;;;;;;;17.40;11.07;;;;;;;17.57;70.63;98553.91;5091426;28;20027;-72
2021/09/13 05:35:14;;;;;;;18.98;11.85;;;;;;;17.59;70.86;98553.59;5090991;28;20035;-72
2021/09/13 05:37:39;;;;;;;24.52;12.70;;;;;;;17.65;71.00;98560.53;5092567;28;20031;-72
2021/09/13 05:40:06;;;;;;;20.30;12.48;;;;;;;17.73;71.04;98565.16;5091559;28;20020;-71
2021/09/13 05:42:33;;;;;;;21.58;12.70;;;;;;;17.79;70.90;98561.03;5092231;28;20028;-71
2021/09/13 05:44:58;;;;;;;23.30;13.10;;;;;;;17.76;70.79;98567.25;5090197;28;20023;-72
2021/09/13 05:47:24;;;;;;;23.67;13.02;;;;;;;17.82;70.82;98559.56;5091546;28;20052;-71
2021/09/13 05:49:49;;;;;;;23.10;12.93;;;;;;;17.85;71.23;98559.66;5089288;28;20433;-71
2021/09/13 05:52:15;;;;;;;23.30;12.68;;;;;;;17.93;71.26;98565.47;5088200;28;20074;-71
2021/09/13 05:54:40;;;;;;;22.60;13.05;;;;;;;17.97;71.31;98561.66;5093449;28;20066;-73
2021/09/13 05:57:06;;;;;;;25.05;13.18;;;;;;;17.97;70.97;98569.97;5087772;28;20388;-72
2021/09/13 05:59:31;;;;;;;20.40;12.43;;;;;;;17.89;71.09;98561.75;5066817;28;20031;-72
2021/09/13 06:01:56;;;;;;;24.65;15.05;;;;;;;17.79;71.49;98569.34;5072014;28;20023;-72
2021/09/13 06:04:22;;;;;;;28.05;15.57;;;;;;;17.81;71.54;98572.59;5072306;28;20418;-72
2021/09/13 06:06:47;;;;;;;28.75;15.18;;;;;;;17.80;71.58;98559.88;5083811;28;20029;-72
2021/09/13 06:09:13;;;;;;;29.02;15.57;;;;;;;17.81;71.43;98563.47;5087217;28;20024;-71
2021/09/13 06:11:38;;;;;;;29.65;16.00;;;;;;;17.79;71.58;98558.25;5088036;28;20495;-72
2021/09/13 06:14:05;;;;;;;29.83;16.90;;;;;;;17.80;71.46;98557.09;5087913;28;20024;-72
2021/09/13 06:16:31;;;;;;;35.97;18.70;;;;;;;17.77;71.48;98560.56;5069701;28;20024;-72
2021/09/13 06:18:57;;;;;;;27.05;15.05;;;;;;;17.79;71.58;98563.81;5092490;28;20039;-72
2021/09/13 06:21:22;;;;;;;46.33;20.55;;;;;;;17.81;72.23;98575.38;5091830;28;20131;-71
2021/09/13 06:23:48;;;;;;;34.63;19.63;;;;;;;17.90;71.94;98568.94;5090466;28;20031;-71
2021/09/13 06:26:15;;;;;;;33.03;18.77;;;;;;;17.97;71.72;98571.97;5093926;28;20026;-72
2021/09/13 06:28:40;;;;;;;35.40;19.15;;;;;;;17.96;72.15;98573.13;5094953;28;20035;-71
2021/09/13 06:31:06;;;;;;;29.30;17.48;;;;;;;17.98;71.59;98571.59;5094410;28;20051;-71
2021/09/13 06:33:32;;;;;;;33.28;18.60;;;;;;;18.09;72.25;98576.75;5089813;28;20060;-72
2021/09/13 06:35:58;;;;;;;31.40;19.90;;;;;;;18.18;72.30;98574.69;5089488;28;20029;-72
2021/09/13 06:38:24;;;;;;;33.30;20.48;;;;;;;18.19;72.60;98583.81;5090087;28;20461;-72
2021/09/13 06:40:49;;;;;;;35.47;21.35;;;;;;;18.19;72.73;98568.00;5087799;28;20047;-72
2021/09/13 06:43:16;;;;;;;35.88;22.00;;;;;;;18.25;72.66;98576.91;5089101;28;20027;-71
2021/09/13 06:45:44;;;;;;;37.90;22.63;;;;;;;18.32;73.39;98577.13;5091117;28;20107;-72
2021/09/13 06:48:16;;;;;;;35.80;22.77;;;;;;;18.32;72.77;98577.13;5089681;28;20028;-72
2021/09/13 06:50:44;;;;;;;34.53;20.38;;;;;;;18.34;72.22;98574.81;5091219;28;20088;-73
2021/09/13 06:53:10;;;;;;;37.92;21.52;;;;;;;18.30;72.17;98577.50;5089144;28;20034;-72
2021/09/13 06:55:37;;;;;;;34.45;21.58;;;;;;;18.37;72.61;98584.41;5091115;28;20030;-72
2021/09/13 06:58:05;;;;;;;36.97;22.65;;;;;;;18.45;72.55;98589.06;5090105;28;20039;-72
2021/09/13 07:00:31;;;;;;;34.70;22.50;;;;;;;18.52;72.98;98588.50;5068210;28;20021;-71
2021/09/13 07:02:56;;;;;;;32.78;21.58;;;;;;;18.52;71.95;98583.75;5090071;28;20028;-72
2021/09/13 07:05:22;;;;;;;35.08;21.35;;;;;;;18.50;71.94;98585.25;5089853;28;20423;-71
2021/09/13 07:07:47;;;;;;;36.35;21.50;;;;;;;18.53;71.86;98587.34;5090181;28;20023;-72
2021/09/13 07:10:16;;;;;;;35.72;21.80;;;;;;;18.59;72.06;98585.94;5070741;28;20043;-72
2021/09/13 07:12:42;;;;;;;37.65;22.10;;;;;;;18.64;71.96;98590.47;5089711;28;20097;-71
2021/09/13 07:15:08;;;;;;;47.55;28.50;;;;;;;18.71;71.79;98593.50;5088901;28;20452;-72
2021/09/13 07:17:33;;;;;;;35.10;23.10;;;;;;;18.74;71.88;98601.13;5090303;28;20039;-72
2021/09/13 07:19:59;;;;;;;34.50;23.35;;;;;;;18.73;71.73;98594.75;5088181;28;20816;-72
2021/09/13 07:22:24;;;;;;;29.92;21.13;;;;;;;18.70;71.42;98605.75;5092586;28;20023;-72
2021/09/13 07:24:50;;;;;;;35.70;22.35;;;;;;;18.73;71.67;98605.84;5096431;28;20536;-72
2021/09/13 07:27:15;;;;;;;31.60;19.65;;;;;;;18.79;71.56;98600.88;5093880;28;20032;-73
2021/09/13 07:29:41;;;;;;;35.55;23.10;;;;;;;18.86;71.88;98603.09;5096101;28;20047;-72
2021/09/13 07:32:07;;;;;;;33.63;22.25;;;;;;;18.93;71.66;98608.88;5095931;28;20099;-72
2021/09/13 07:34:34;;;;;;;34.10;23.75;;;;;;;18.93;71.58;98608.88;5094778;28;20029;-72
2021/09/13 07:36:59;;;;;;;34.75;22.80;;;;;;;18.95;71.28;98614.88;5096683;28;20341;-72
2021/09/13 07:39:27;;;;;;;35.75;24.30;;;;;;;18.95;71.51;98608.50;5072625;28;20020;-72
2021/09/13 07:41:53;;;;;;;35.17;23.27;;;;;;;18.99;71.40;98615.03;5087718;28;20023;-72
2021/09/13 07:44:19;;;;;;;39.42;25.70;;;;;;;19.12;71.40;98618.59;5089126;28;20036;-73
2021/09/13 07:46:45;;;;;;;35.83;23.60;;;;;;;19.19;71.25;98625.19;5089285;28;20028;-71
2021/09/13 07:49:11;;;;;;;37.88;25.13;;;;;;;19.26;71.19;98626.56;5088629;28;20032;-71
2021/09/13 07:51:37;;;;;;;36.47;24.55;;;;;;;19.29;70.97;98618.34;5093555;28;20027;-72
2021/09/13 07:54:02;;;;;;;38.40;23.98;;;;;;;19.30;70.86;98619.97;5094428;28;20020;-73
2021/09/13 07:56:28;;;;;;;37.42;24.75;;;;;;;19.31;70.86;98617.97;5088525;28;20050;-72
2021/09/13 07:58:54;;;;;;;35.15;24.40;;;;;;;19.36;70.72;98628.06;5090765;28;20024;-72
2021/09/13 08:01:20;;;;;;;36.70;24.15;;;;;;;19.36;70.50;98623.31;5090317;28;20036;-72
2021/09/13 08:03:45;;;;;;;35.65;24.85;;;;;;;19.36;70.42;98628.88;5090724;28;20043;-73
2021/09/13 08:06:10;;;;;;;36.25;25.45;;;;;;;19.38;70.29;98632.09;5096091;28;20031;-72
2021/09/13 08:08:36;;;;;;;35.05;25.55;;;;;;;19.38;70.07;98628.50;5088695;28;20047;-72
2021/09/13 08:11:04;;;;;;;35.42;24.17;;;;;;;19.41;69.96;98630.59;5091474;28;20028;-72
2021/09/13 08:13:29;;;;;;;36.17;24.73;;;;;;;19.47;70.12;98629.19;5091249;28;20035;-73
2021/09/13 08:15:55;;;;;;;31.23;22.15;;;;;;;19.52;70.08;98628.94;5085440;28;20024;-71
2021/09/13 08:18:21;;;;;;;27.38;20.55;;;;;;;19.60;70.14;98635.50;5090172;28;20024;-73
2021/09/13 08:20:46;;;;;;;27.42;20.42;;;;;;;19.62;69.47;98638.75;5090368;28;20093;-71
2021/09/13 08:23:11;;;;;;;26.33;19.10;;;;;;;19.65;69.27;98643.63;5088685;28;20028;-72
2021/09/13 08:25:37;;;;;;;27.95;19.85;;;;;;;19.72;69.29;98641.03;5096516;28;21874;-72
2021/09/13 08:28:02;;;;;;;26.08;19.13;;;;;;;19.83;68.98;98640.56;5110542;28;20039;-73
2021/09/13 08:30:28;;;;;;;29.40;21.38;;;;;;;19.89;68.84;98645.53;5110779;28;20028;-73
2021/09/13 08:32:54;;;;;;;25.98;18.48;;;;;;;19.93;67.95;98640.88;5092417;28;20042;-70
2021/09/13 08:35:20;;;;;;;20.77;16.38;;;;;;;20.00;68.03;98639.47;5110320;28;20031;-72
2021/09/13 08:37:46;;;;;;;18.45;14.50;;;;;;;20.04;67.98;98641.16;5110678;28;20285;-72
2021/09/13 08:40:12;;;;;;;24.23;16.13;;;;;;;20.07;67.53;98650.81;5111329;28;20383;-73
2021/09/13 08:42:50;;;;;;;18.17;14.13;;;;;;;20.03;67.07;98647.09;5103390;28;20093;-73
2021/09/13 08:45:21;;;;;;;22.17;16.25;;;;;;;20.11;67.19;98651.72;5101842;28;20024;-71
2021/09/13 08:47:58;;;;;;;18.85;14.57;;;;;;;20.20;67.45;98641.19;5091141;28;20488;-72
2021/09/13 08:51:03;;;;;;;21.77;15.55;;;;;;;20.25;67.18;98650.47;5088930;28;20230;-71
2021/09/13 08:53:14;;;;;;;21.45;15.65;;;;;;;20.33;66.73;98646.72;5087569;28;20044;-71
2021/09/13 08:55:39;;;;;;;16.60;12.70;;;;;;;20.40;66.33;98643.28;5093461;28;20042;-72
2021/09/13 08:58:07;;;;;;;14.50;11.35;;;;;;;20.47;66.39;98647.09;5093687;28;20452;-73
2021/09/13 09:00:34;;;;;;;17.08;12.98;;;;;;;20.55;66.15;98652.84;5093361;28;20032;-71
2021/09/13 09:03:03;;;;;;;16.08;12.98;;;;;;;20.61;66.13;98648.63;5093592;28;20054;-73
2021/09/13 09:05:29;;;;;;;18.55;14.20;;;;;;;20.65;65.41;98646.72;5093279;28;20091;-72
2021/09/13 09:07:55;;;;;;;16.00;12.75;;;;;;;20.71;65.57;98645.28;5093569;28;20107;-69
2021/09/13 09:10:25;;;;;;;18.58;14.07;;;;;;;20.82;64.65;98646.41;5092528;28;20024;-72
2021/09/13 09:12:58;;;;;;;63.72;34.75;;;;;;;20.84;63.49;98650.81;5107064;28;20026;-72
2021/09/13 09:15:24;;;;;;;15.90;12.35;;;;;;;20.89;63.68;98651.34;5093500;28;20486;-73
2021/09/13 09:17:57;;;;;;;16.05;11.95;;;;;;;20.98;64.22;98642.81;5092905;28;20031;-72
2021/09/13 09:20:23;;;;;;;13.20;11.05;;;;;;;21.12;64.37;98645.91;5092433;28;20059;-73
2021/09/13 09:23:02;;;;;;;16.20;12.38;;;;;;;21.12;63.44;98637.56;5092014;28;20028;-72
2021/09/13 09:25:36;;;;;;;15.95;12.68;;;;;;;21.14;63.71;98640.00;5089724;28;20115;-72
2021/09/13 09:28:10;;;;;;;15.68;10.95;;;;;;;21.17;63.72;98647.63;5088477;28;20029;-74
2021/09/13 09:30:43;;;;;;;17.15;11.82;;;;;;;21.21;63.38;98645.72;5089052;28;20388;-69
2021/09/13 09:33:21;;;;;;;13.73;11.05;;;;;;;21.18;62.76;98645.63;5107602;28;20027;-69
2021/09/13 09:35:52;;;;;;;19.05;12.32;;;;;;;21.15;62.71;98641.59;5112758;28;20077;-70
2021/09/13 09:38:43;;;;;;;18.65;13.52;;;;;;;21.09;62.70;98651.41;5112581;28;20039;-71
2021/09/13 09:41:10;;;;;;;18.88;15.23;;;;;;;21.01;62.60;98653.22;5106295;28;20534;-70
2021/09/13 09:43:51;;;;;;;19.83;15.00;;;;;;;20.92;62.63;98653.41;5106303;28;20038;-71
2021/09/13 09:46:17;;;;;;;19.90;15.65;;;;;;;20.88;62.70;98657.28;5092038;28;20126;-70
2021/09/13 09:48:43;;;;;;;25.88;19.48;;;;;;;20.89;63.07;98650.53;5091648;28;20118;-70
2021/09/13 09:51:29;;;;;;;20.88;15.10;;;;;;;20.88;63.28;98649.72;5091531;28;20384;-68
2021/09/13 09:53:55;;;;;;;13.00;11.02;;;;;;;20.91;63.27;98646.22;5091694;28;20028;-74
2021/09/13 09:56:23;;;;;;;17.95;12.68;;;;;;;20.88;63.35;98638.56;5091705;28;20036;-76
2021/09/13 09:59:17;;;;;;;15.43;12.30;;;;;;;21.01;63.38;98638.47;5104209;28;20024;-75
2021/09/13 10:01:49;;;;;;;14.73;11.70;;;;;;;21.11;63.84;98630.34;5107350;28;20154;-76
2021/09/13 10:04:18;;;;;;;7.35;6.63;;;;;;;21.18;61.59;98629.72;5110972;28;20103;-74
2021/09/13 10:06:46;;;;;;;12.68;9.98;;;;;;;21.21;61.40;98631.75;5080307;28;20391;-76
2021/09/13 10:09:12;;;;;;;7.07;6.32;;;;;;;21.29;60.87;98632.75;5089334;28;20025;-74
2021/09/13 10:11:39;;;;;;;7.75;6.93;;;;;;;21.37;60.48;98626.16;5090772;28;20032;-75
2021/09/13 10:14:11;;;;;;;10.38;9.30;;;;;;;21.42;60.08;98627.84;5094553;28;20081;-77
2021/09/13 10:16:39;;;;;;;6.25;5.53;;;;;;;21.54;59.16;98624.09;5094678;28;20028;-74
2021/09/13 10:19:06;;;;;;;7.78;6.97;;;;;;;21.65;59.21;98622.38;5095776;28;20049;-77
2021/09/13 10:21:32;;;;;;;12.80;8.13;;;;;;;21.75;59.19;98620.19;5090524;28;20109;-78
2021/09/13 10:24:00;;;;;;;9.43;8.40;;;;;;;21.86;59.10;98615.63;5090599;28;20023;-77
2021/09/13 10:26:26;;;;;;;9.88;8.13;;;;;;;21.96;58.91;98612.22;5092867;28;20376;-76
2021/09/13 10:29:03;;;;;;;12.00;9.23;;;;;;;22.10;59.00;98616.47;5090289;28;20028;-73
2021/09/13 10:31:41;;;;;;;9.68;8.68;;;;;;;22.19;58.53;98619.84;5104570;28;20015;-73
2021/09/13 10:34:16;;;;;;;9.57;8.25;;;;;;;22.21;57.87;98619.47;5087086;28;20035;-73
2021/09/13 10:37:14;;;;;;;9.52;8.52;;;;;;;22.17;58.10;98611.03;5065625;28;20081;-73
2021/09/13 10:39:57;;;;;;;9.95;8.60;;;;;;;22.14;57.31;98611.78;5088375;28;20514;-74
2021/09/13 10:42:36;;;;;;;12.80;10.20;;;;;;;22.01;57.99;98616.69;5086674;28;20027;-72
2021/09/13 10:45:19;;;;;;;32.15;19.95;;;;;;;21.92;58.26;98619.72;5111061;28;20073;-72
2021/09/13 10:48:02;;;;;;;24.67;12.88;;;;;;;21.89;58.66;98623.25;5088535;28;20027;-73
2021/09/13 10:50:49;;;;;;;11.13;9.00;;;;;;;21.87;58.41;98620.03;5089019;28;20032;-73
2021/09/13 10:53:18;;;;;;;11.48;9.43;;;;;;;21.76;58.59;98619.81;5089641;28;20031;-73
2021/09/13 10:55:50;;;;;;;14.10;9.95;;;;;;;21.70;58.80;98618.50;5089956;28;20020;-73
2021/09/13 10:58:43;;;;;;;11.18;10.00;;;;;;;21.73;59.04;98612.16;5101620;28;20112;-72
2021/09/13 11:01:29;;;;;;;12.15;9.57;;;;;;;21.80;58.74;98614.31;5110463;28;20064;-72
2021/09/13 11:04:02;;;;;;;14.30;11.02;;;;;;;21.89;58.66;98612.09;5093211;28;20383;-73
2021/09/13 11:06:31;;;;;;;16.30;13.55;;;;;;;21.98;58.07;98609.88;5110671;28;20361;-72
2021/09/13 11:08:59;;;;;;;15.45;12.30;;;;;;;22.03;57.85;98614.34;5106866;28;20028;-72
2021/09/13 11:11:28;;;;;;;24.75;11.82;;;;;;;22.20;58.39;98615.06;5095986;28;20435;-73
2021/09/13 11:13:55;;;;;;;;;;;;;;;22.38;58.84;98605.03;5090246;28;20111;-71
2021/09/13 11:16:21;;;;;;;13.20;10.60;;;;;;;22.56;59.12;98598.94;5097785;28;19916;-71
2021/09/13 11:18:48;;;;;;;11.55;9.82;;;;;;;22.75;58.50;98601.69;5088724;28;20082;-70
2021/09/13 11:21:25;;;;;;;10.80;9.70;;;;;;;22.94;57.89;98591.56;5072416;28;20079;-71
2021/09/13 11:23:57;;;;;;;12.02;10.32;;;;;;;23.10;56.91;98597.00;5107720;28;20353;-71